sensor_id;sensor_type;location;lat;lon;timestamp;P1;durP1;ratioP1;P2;durP2;ratioP2
21941;SDS011;11135;54.192;15.670;2023-11-21T00:00:18;26.92;;;13.48;;
21941;SDS011;11135;54.192;15.670;2023-11-21T00:04:04;20.85;;;11.00;;
21941;SDS011;11135;54.192;15.670;2023-11-21T00:07:30;19.88;;;11.55;;
21941;SDS011;11135;54.192;15.670;2023-11-21T00:10:59;13.27;;;8.10;;
21941;SDS011;11135;54.192;15.670;2023-11-21T00:14:25;14.77;;;8.55;;
21941;SDS011;11135;54.192;15.670;2023-11-21T00:17:50;14.63;;;9.25;;
21941;SDS011;11135;54.192;15.670;2023-11-21T00:21:16;15.20;;;8.77;;
21941;SDS011;11135;54.192;15.670;2023-11-21T00:24:42;17.42;;;10.93;;
21941;SDS011;11135;54.192;15.670;2023-11-21T00:28:10;19.13;;;10.88;;
21941;SDS011;11135;54.192;15.670;2023-11-21T00:31:36;28.85;;;15.57;;
21941;SDS011;11135;54.192;15.670;2023-11-21T00:35:02;21.70;;;11.05;;
21941;SDS011;11135;54.192;15.670;2023-11-21T00:38:28;24.58;;;15.63;;
21941;SDS011;11135;54.192;15.670;2023-11-21T00:41:57;17.73;;;10.98;;
21941;SDS011;11135;54.192;15.670;2023-11-21T00:45:25;17.23;;;10.77;;
21941;SDS011;11135;54.192;15.670;2023-11-21T00:48:52;20.70;;;12.20;;
21941;SDS011;11135;54.192;15.670;2023-11-21T00:52:18;19.40;;;10.80;;
21941;SDS011;11135;54.192;15.670;2023-11-21T00:55:44;18.60;;;10.20;;
21941;SDS011;11135;54.192;15.670;2023-11-21T00:59:10;17.92;;;11.05;;
21941;SDS011;11135;54.192;15.670;2023-11-21T01:02:38;22.58;;;11.13;;
21941;SDS011;11135;54.192;15.670;2023-11-21T01:06:04;19.92;;;11.82;;
21941;SDS011;11135;54.192;15.670;2023-11-21T01:09:34;26.33;;;12.40;;
21941;SDS011;11135;54.192;15.670;2023-11-21T01:13:00;22.85;;;12.25;;
21941;SDS011;11135;54.192;15.670;2023-11-21T01:19:58;25.67;;;15.13;;
21941;SDS011;11135;54.192;15.670;2023-11-21T01:23:24;20.85;;;12.80;;
21941;SDS011;11135;54.192;15.670;2023-11-21T01:26:49;26.80;;;15.45;;
21941;SDS011;11135;54.192;15.670;2023-11-21T01:30:15;21.20;;;12.07;;
21941;SDS011;11135;54.192;15.670;2023-11-21T01:33:40;22.70;;;11.05;;
21941;SDS011;11135;54.192;15.670;2023-11-21T01:37:09;16.35;;;10.65;;
21941;SDS011;11135;54.192;15.670;2023-11-21T01:40:34;14.82;;;9.23;;
21941;SDS011;11135;54.192;15.670;2023-11-21T01:44:00;19.13;;;11.80;;
21941;SDS011;11135;54.192;15.670;2023-11-21T01:47:28;13.07;;;9.10;;
21941;SDS011;11135;54.192;15.670;2023-11-21T01:50:54;20.25;;;11.70;;
21941;SDS011;11135;54.192;15.670;2023-11-21T01:54:23;22.42;;;13.07;;
21941;SDS011;11135;54.192;15.670;2023-11-21T01:57:49;26.80;;;14.75;;
21941;SDS011;11135;54.192;15.670;2023-11-21T02:01:15;22.90;;;13.13;;
21941;SDS011;11135;54.192;15.670;2023-11-21T02:04:41;21.60;;;12.30;;
21941;SDS011;11135;54.192;15.670;2023-11-21T02:08:07;23.38;;;12.73;;
21941;SDS011;11135;54.192;15.670;2023-11-21T02:11:36;23.88;;;14.23;;
21941;SDS011;11135;54.192;15.670;2023-11-21T02:15:02;21.20;;;12.35;;
21941;SDS011;11135;54.192;15.670;2023-11-21T02:18:32;21.75;;;12.32;;
21941;SDS011;11135;54.192;15.670;2023-11-21T02:22:00;22.88;;;13.73;;
21941;SDS011;11135;54.192;15.670;2023-11-21T02:25:32;22.17;;;13.45;;
21941;SDS011;11135;54.192;15.670;2023-11-21T02:29:00;23.90;;;13.80;;
21941;SDS011;11135;54.192;15.670;2023-11-21T02:32:27;21.17;;;12.82;;
21941;SDS011;11135;54.192;15.670;2023-11-21T02:35:54;21.90;;;12.40;;
21941;SDS011;11135;54.192;15.670;2023-11-21T02:39:19;19.52;;;11.65;;
21941;SDS011;11135;54.192;15.670;2023-11-21T02:42:51;21.83;;;13.20;;
21941;SDS011;11135;54.192;15.670;2023-11-21T02:46:17;20.65;;;13.40;;
21941;SDS011;11135;54.192;15.670;2023-11-21T02:49:42;26.50;;;13.40;;
21941;SDS011;11135;54.192;15.670;2023-11-21T02:53:08;17.90;;;11.40;;
21941;SDS011;11135;54.192;15.670;2023-11-21T02:56:34;22.92;;;13.27;;
21941;SDS011;11135;54.192;15.670;2023-11-21T03:00:06;22.08;;;11.68;;
21941;SDS011;11135;54.192;15.670;2023-11-21T03:03:32;21.02;;;13.23;;
21941;SDS011;11135;54.192;15.670;2023-11-21T03:07:02;20.15;;;12.23;;
21941;SDS011;11135;54.192;15.670;2023-11-21T03:10:28;19.30;;;11.13;;
21941;SDS011;11135;54.192;15.670;2023-11-21T03:13:54;16.70;;;10.23;;
21941;SDS011;11135;54.192;15.670;2023-11-21T03:17:22;17.05;;;10.07;;
21941;SDS011;11135;54.192;15.670;2023-11-21T03:20:48;17.58;;;9.43;;
21941;SDS011;11135;54.192;15.670;2023-11-21T03:24:14;16.33;;;9.90;;
21941;SDS011;11135;54.192;15.670;2023-11-21T03:27:42;13.43;;;8.98;;
21941;SDS011;11135;54.192;15.670;2023-11-21T03:31:07;13.55;;;8.98;;
21941;SDS011;11135;54.192;15.670;2023-11-21T03:34:48;15.45;;;9.50;;
21941;SDS011;11135;54.192;15.670;2023-11-21T03:38:18;15.88;;;9.05;;
21941;SDS011;11135;54.192;15.670;2023-11-21T03:41:49;20.35;;;11.00;;
21941;SDS011;11135;54.192;15.670;2023-11-21T03:45:15;20.65;;;10.93;;
21941;SDS011;11135;54.192;15.670;2023-11-21T03:48:41;14.38;;;8.70;;
21941;SDS011;11135;54.192;15.670;2023-11-21T03:52:09;16.08;;;9.88;;
21941;SDS011;11135;54.192;15.670;2023-11-21T03:55:35;13.85;;;9.65;;
21941;SDS011;11135;54.192;15.670;2023-11-21T03:59:01;13.45;;;8.98;;
21941;SDS011;11135;54.192;15.670;2023-11-21T04:02:27;14.32;;;9.32;;
21941;SDS011;11135;54.192;15.670;2023-11-21T04:05:54;15.52;;;8.98;;
21941;SDS011;11135;54.192;15.670;2023-11-21T04:09:26;11.95;;;8.43;;
21941;SDS011;11135;54.192;15.670;2023-11-21T04:12:51;13.90;;;8.55;;
21941;SDS011;11135;54.192;15.670;2023-11-21T04:16:19;15.55;;;9.98;;
21941;SDS011;11135;54.192;15.670;2023-11-21T04:19:45;12.52;;;8.05;;
21941;SDS011;11135;54.192;15.670;2023-11-21T04:23:16;15.30;;;10.07;;
21941;SDS011;11135;54.192;15.670;2023-11-21T04:26:46;13.90;;;9.30;;
21941;SDS011;11135;54.192;15.670;2023-11-21T04:30:13;15.07;;;9.27;;
21941;SDS011;11135;54.192;15.670;2023-11-21T04:33:39;12.40;;;7.25;;
21941;SDS011;11135;54.192;15.670;2023-11-21T04:37:07;13.73;;;8.20;;
21941;SDS011;11135;54.192;15.670;2023-11-21T04:40:33;10.57;;;6.90;;
21941;SDS011;11135;54.192;15.670;2023-11-21T04:44:01;9.70;;;6.28;;
21941;SDS011;11135;54.192;15.670;2023-11-21T04:47:27;12.35;;;7.50;;
21941;SDS011;11135;54.192;15.670;2023-11-21T04:50:53;13.27;;;5.40;;
21941;SDS011;11135;54.192;15.670;2023-11-21T04:54:21;10.65;;;7.18;;
21941;SDS011;11135;54.192;15.670;2023-11-21T04:57:49;10.85;;;6.93;;
21941;SDS011;11135;54.192;15.670;2023-11-21T05:01:18;11.23;;;6.78;;
21941;SDS011;11135;54.192;15.670;2023-11-21T05:04:44;10.93;;;6.38;;
21941;SDS011;11135;54.192;15.670;2023-11-21T05:08:09;9.90;;;5.93;;
21941;SDS011;11135;54.192;15.670;2023-11-21T05:11:35;11.43;;;6.55;;
21941;SDS011;11135;54.192;15.670;2023-11-21T05:15:01;11.75;;;5.60;;
21941;SDS011;11135;54.192;15.670;2023-11-21T05:18:32;9.18;;;5.80;;
21941;SDS011;11135;54.192;15.670;2023-11-21T05:22:00;12.32;;;6.25;;
21941;SDS011;11135;54.192;15.670;2023-11-21T05:25:26;15.35;;;7.47;;
21941;SDS011;11135;54.192;15.670;2023-11-21T05:28:52;10.57;;;6.82;;
21941;SDS011;11135;54.192;15.670;2023-11-21T05:32:18;8.70;;;5.20;;
21941;SDS011;11135;54.192;15.670;2023-11-21T05:35:47;9.50;;;5.95;;
21941;SDS011;11135;54.192;15.670;2023-11-21T05:39:13;10.10;;;6.05;;
21941;SDS011;11135;54.192;15.670;2023-11-21T05:42:40;11.20;;;6.70;;
21941;SDS011;11135;54.192;15.670;2023-11-21T05:46:06;7.95;;;4.90;;
21941;SDS011;11135;54.192;15.670;2023-11-21T05:49:32;9.82;;;5.35;;
21941;SDS011;11135;54.192;15.670;2023-11-21T05:53:01;11.13;;;6.35;;
21941;SDS011;11135;54.192;15.670;2023-11-21T05:56:27;11.20;;;6.45;;
21941;SDS011;11135;54.192;15.670;2023-11-21T05:59:52;11.77;;;6.82;;
21941;SDS011;11135;54.192;15.670;2023-11-21T06:03:18;10.65;;;6.90;;
21941;SDS011;11135;54.192;15.670;2023-11-21T06:06:44;8.50;;;4.53;;
21941;SDS011;11135;54.192;15.670;2023-11-21T06:10:12;18.27;;;6.28;;
21941;SDS011;11135;54.192;15.670;2023-11-21T06:13:40;11.07;;;5.93;;
21941;SDS011;11135;54.192;15.670;2023-11-21T06:17:06;10.15;;;6.68;;
21941;SDS011;11135;54.192;15.670;2023-11-21T06:20:32;9.82;;;5.65;;
21941;SDS011;11135;54.192;15.670;2023-11-21T06:24:00;11.07;;;6.38;;
21941;SDS011;11135;54.192;15.670;2023-11-21T06:27:28;15.52;;;7.43;;
21941;SDS011;11135;54.192;15.670;2023-11-21T06:30:54;9.00;;;5.90;;
21941;SDS011;11135;54.192;15.670;2023-11-21T06:34:20;11.38;;;6.60;;
21941;SDS011;11135;54.192;15.670;2023-11-21T06:41:19;11.50;;;5.53;;
21941;SDS011;11135;54.192;15.670;2023-11-21T06:44:48;10.35;;;6.00;;
21941;SDS011;11135;54.192;15.670;2023-11-21T06:48:18;8.45;;;5.10;;
21941;SDS011;11135;54.192;15.670;2023-11-21T06:51:43;10.10;;;6.25;;
21941;SDS011;11135;54.192;15.670;2023-11-21T06:55:10;11.00;;;6.57;;
21941;SDS011;11135;54.192;15.670;2023-11-21T06:58:38;11.32;;;7.50;;
21941;SDS011;11135;54.192;15.670;2023-11-21T07:02:06;9.90;;;6.65;;
21941;SDS011;11135;54.192;15.670;2023-11-21T07:05:48;14.98;;;9.13;;
21941;SDS011;11135;54.192;15.670;2023-11-21T07:09:31;47.30;;;21.65;;
21941;SDS011;11135;54.192;15.670;2023-11-21T07:12:57;55.83;;;29.15;;
21941;SDS011;11135;54.192;15.670;2023-11-21T07:16:27;37.88;;;21.08;;
21941;SDS011;11135;54.192;15.670;2023-11-21T07:19:56;16.25;;;9.77;;
21941;SDS011;11135;54.192;15.670;2023-11-21T07:23:25;19.67;;;8.65;;
21941;SDS011;11135;54.192;15.670;2023-11-21T07:26:51;28.25;;;11.20;;
21941;SDS011;11135;54.192;15.670;2023-11-21T07:30:20;26.42;;;11.43;;
21941;SDS011;11135;54.192;15.670;2023-11-21T07:33:47;48.10;;;18.80;;
21941;SDS011;11135;54.192;15.670;2023-11-21T07:37:16;125.55;;;57.58;;
21941;SDS011;11135;54.192;15.670;2023-11-21T07:40:44;57.42;;;30.95;;
21941;SDS011;11135;54.192;15.670;2023-11-21T07:44:11;21.60;;;10.00;;
21941;SDS011;11135;54.192;15.670;2023-11-21T07:47:37;16.30;;;8.30;;
21941;SDS011;11135;54.192;15.670;2023-11-21T07:51:05;21.15;;;11.60;;
21941;SDS011;11135;54.192;15.670;2023-11-21T07:54:33;18.98;;;8.77;;
21941;SDS011;11135;54.192;15.670;2023-11-21T07:57:59;18.15;;;8.95;;
21941;SDS011;11135;54.192;15.670;2023-11-21T08:01:24;16.52;;;8.30;;
21941;SDS011;11135;54.192;15.670;2023-11-21T08:04:51;13.32;;;8.38;;
21941;SDS011;11135;54.192;15.670;2023-11-21T08:08:18;20.80;;;13.23;;
21941;SDS011;11135;54.192;15.670;2023-11-21T08:11:49;26.67;;;11.10;;
21941;SDS011;11135;54.192;15.670;2023-11-21T08:15:16;19.23;;;9.05;;
21941;SDS011;11135;54.192;15.670;2023-11-21T08:18:42;34.28;;;12.35;;
21941;SDS011;11135;54.192;15.670;2023-11-21T08:22:09;78.50;;;32.50;;
21941;SDS011;11135;54.192;15.670;2023-11-21T08:25:37;20.27;;;9.48;;
21941;SDS011;11135;54.192;15.670;2023-11-21T08:29:07;15.73;;;7.18;;
21941;SDS011;11135;54.192;15.670;2023-11-21T08:32:34;15.73;;;5.60;;
21941;SDS011;11135;54.192;15.670;2023-11-21T08:36:00;20.83;;;10.60;;
21941;SDS011;11135;54.192;15.670;2023-11-21T08:39:27;23.52;;;12.80;;
21941;SDS011;11135;54.192;15.670;2023-11-21T08:42:52;16.80;;;6.75;;
21941;SDS011;11135;54.192;15.670;2023-11-21T08:46:23;9.15;;;5.05;;
21941;SDS011;11135;54.192;15.670;2023-11-21T08:49:55;8.35;;;4.63;;
21941;SDS011;11135;54.192;15.670;2023-11-21T08:53:22;9.32;;;5.00;;
21941;SDS011;11135;54.192;15.670;2023-11-21T08:56:50;30.30;;;14.02;;
21941;SDS011;11135;54.192;15.670;2023-11-21T09:00:17;20.00;;;9.30;;
21941;SDS011;11135;54.192;15.670;2023-11-21T09:03:47;7.15;;;4.18;;
21941;SDS011;11135;54.192;15.670;2023-11-21T09:07:12;9.10;;;4.88;;
21941;SDS011;11135;54.192;15.670;2023-11-21T09:10:38;10.35;;;5.75;;
21941;SDS011;11135;54.192;15.670;2023-11-21T09:14:06;18.00;;;8.82;;
21941;SDS011;11135;54.192;15.670;2023-11-21T09:17:35;8.73;;;4.43;;
21941;SDS011;11135;54.192;15.670;2023-11-21T09:21:04;7.40;;;3.95;;
21941;SDS011;11135;54.192;15.670;2023-11-21T09:24:31;5.55;;;3.70;;
21941;SDS011;11135;54.192;15.670;2023-11-21T09:27:59;8.52;;;3.95;;
21941;SDS011;11135;54.192;15.670;2023-11-21T09:31:27;7.82;;;5.40;;
21941;SDS011;11135;54.192;15.670;2023-11-21T09:34:53;15.82;;;6.95;;
21941;SDS011;11135;54.192;15.670;2023-11-21T09:38:24;6.85;;;3.70;;
21941;SDS011;11135;54.192;15.670;2023-11-21T09:41:51;9.30;;;4.30;;
21941;SDS011;11135;54.192;15.670;2023-11-21T09:45:21;8.38;;;5.53;;
21941;SDS011;11135;54.192;15.670;2023-11-21T09:48:48;10.02;;;5.53;;
21941;SDS011;11135;54.192;15.670;2023-11-21T09:52:18;8.15;;;3.90;;
21941;SDS011;11135;54.192;15.670;2023-11-21T09:55:51;8.40;;;3.67;;
21941;SDS011;11135;54.192;15.670;2023-11-21T09:59:17;7.70;;;3.60;;
21941;SDS011;11135;54.192;15.670;2023-11-21T10:02:47;7.13;;;4.50;;
21941;SDS011;11135;54.192;15.670;2023-11-21T10:06:13;8.02;;;4.20;;
21941;SDS011;11135;54.192;15.670;2023-11-21T10:09:42;11.82;;;5.50;;
21941;SDS011;11135;54.192;15.670;2023-11-21T10:13:11;7.15;;;3.85;;
21941;SDS011;11135;54.192;15.670;2023-11-21T10:16:40;8.15;;;4.22;;
21941;SDS011;11135;54.192;15.670;2023-11-21T10:20:07;6.97;;;3.75;;
21941;SDS011;11135;54.192;15.670;2023-11-21T10:23:35;6.68;;;3.45;;
21941;SDS011;11135;54.192;15.670;2023-11-21T10:27:02;7.03;;;3.75;;
21941;SDS011;11135;54.192;15.670;2023-11-21T10:30:32;6.18;;;3.45;;
21941;SDS011;11135;54.192;15.670;2023-11-21T10:34:14;10.23;;;5.80;;
21941;SDS011;11135;54.192;15.670;2023-11-21T10:37:41;6.35;;;3.38;;
21941;SDS011;11135;54.192;15.670;2023-11-21T10:41:11;8.27;;;4.00;;
21941;SDS011;11135;54.192;15.670;2023-11-21T10:44:38;7.90;;;3.50;;
21941;SDS011;11135;54.192;15.670;2023-11-21T10:48:12;5.60;;;3.33;;
21941;SDS011;11135;54.192;15.670;2023-11-21T10:51:49;8.55;;;4.40;;
21941;SDS011;11135;54.192;15.670;2023-11-21T10:55:18;4.88;;;2.92;;
21941;SDS011;11135;54.192;15.670;2023-11-21T10:58:49;4.10;;;2.47;;
21941;SDS011;11135;54.192;15.670;2023-11-21T11:02:21;6.32;;;3.00;;
21941;SDS011;11135;54.192;15.670;2023-11-21T11:05:54;5.10;;;2.70;;
21941;SDS011;11135;54.192;15.670;2023-11-21T11:09:19;5.22;;;3.13;;
21941;SDS011;11135;54.192;15.670;2023-11-21T11:12:46;7.13;;;3.85;;
21941;SDS011;11135;54.192;15.670;2023-11-21T11:16:12;6.45;;;2.92;;
21941;SDS011;11135;54.192;15.670;2023-11-21T11:19:41;7.95;;;3.22;;
21941;SDS011;11135;54.192;15.670;2023-11-21T11:23:21;5.68;;;2.72;;
21941;SDS011;11135;54.192;15.670;2023-11-21T11:26:50;8.30;;;3.25;;
21941;SDS011;11135;54.192;15.670;2023-11-21T11:30:20;6.20;;;2.72;;
21941;SDS011;11135;54.192;15.670;2023-11-21T11:33:53;5.70;;;2.15;;
21941;SDS011;11135;54.192;15.670;2023-11-21T11:37:22;8.63;;;3.20;;
21941;SDS011;11135;54.192;15.670;2023-11-21T11:40:52;3.38;;;2.33;;
21941;SDS011;11135;54.192;15.670;2023-11-21T11:47:59;5.85;;;3.00;;
21941;SDS011;11135;54.192;15.670;2023-11-21T11:51:29;5.40;;;2.70;;
21941;SDS011;11135;54.192;15.670;2023-11-21T11:55:11;8.68;;;5.13;;
21941;SDS011;11135;54.192;15.670;2023-11-21T11:58:41;15.30;;;8.48;;
21941;SDS011;11135;54.192;15.670;2023-11-21T12:02:07;11.27;;;7.25;;
21941;SDS011;11135;54.192;15.670;2023-11-21T12:05:34;5.78;;;3.33;;
21941;SDS011;11135;54.192;15.670;2023-11-21T12:09:01;4.93;;;2.67;;
21941;SDS011;11135;54.192;15.670;2023-11-21T12:12:28;3.50;;;2.28;;
21941;SDS011;11135;54.192;15.670;2023-11-21T12:15:58;4.13;;;2.30;;
21941;SDS011;11135;54.192;15.670;2023-11-21T12:19:25;6.30;;;3.40;;
21941;SDS011;11135;54.192;15.670;2023-11-21T12:22:51;3.85;;;1.80;;
21941;SDS011;11135;54.192;15.670;2023-11-21T12:26:17;7.25;;;3.00;;
21941;SDS011;11135;54.192;15.670;2023-11-21T12:29:45;6.03;;;2.75;;
21941;SDS011;11135;54.192;15.670;2023-11-21T12:33:14;5.85;;;2.88;;
21941;SDS011;11135;54.192;15.670;2023-11-21T12:36:46;5.15;;;2.50;;
21941;SDS011;11135;54.192;15.670;2023-11-21T12:40:12;3.20;;;2.00;;
21941;SDS011;11135;54.192;15.670;2023-11-21T12:43:38;6.00;;;3.17;;
21941;SDS011;11135;54.192;15.670;2023-11-21T12:47:04;4.13;;;2.90;;
21941;SDS011;11135;54.192;15.670;2023-11-21T12:50:34;6.10;;;2.90;;
21941;SDS011;11135;54.192;15.670;2023-11-21T12:54:02;6.45;;;2.67;;
21941;SDS011;11135;54.192;15.670;2023-11-21T12:57:36;4.28;;;2.38;;
21941;SDS011;11135;54.192;15.670;2023-11-21T13:01:04;3.95;;;2.42;;
21941;SDS011;11135;54.192;15.670;2023-11-21T13:04:34;5.13;;;2.42;;
21941;SDS011;11135;54.192;15.670;2023-11-21T13:08:05;5.85;;;3.05;;
21941;SDS011;11135;54.192;15.670;2023-11-21T13:11:44;4.97;;;3.47;;
21941;SDS011;11135;54.192;15.670;2023-11-21T13:15:18;5.18;;;2.80;;
21941;SDS011;11135;54.192;15.670;2023-11-21T13:18:47;4.88;;;2.42;;
21941;SDS011;11135;54.192;15.670;2023-11-21T13:22:15;5.63;;;2.92;;
21941;SDS011;11135;54.192;15.670;2023-11-21T13:25:45;3.75;;;2.17;;
21941;SDS011;11135;54.192;15.670;2023-11-21T13:29:24;5.78;;;3.35;;
21941;SDS011;11135;54.192;15.670;2023-11-21T13:32:58;3.92;;;2.67;;
21941;SDS011;11135;54.192;15.670;2023-11-21T13:36:25;3.17;;;1.60;;
21941;SDS011;11135;54.192;15.670;2023-11-21T13:39:54;3.88;;;2.22;;
21941;SDS011;11135;54.192;15.670;2023-11-21T13:43:24;4.43;;;2.30;;
21941;SDS011;11135;54.192;15.670;2023-11-21T13:46:53;7.38;;;2.47;;
21941;SDS011;11135;54.192;15.670;2023-11-21T13:50:21;4.68;;;2.60;;
21941;SDS011;11135;54.192;15.670;2023-11-21T13:53:53;3.42;;;2.22;;
21941;SDS011;11135;54.192;15.670;2023-11-21T13:57:19;5.30;;;2.38;;
21941;SDS011;11135;54.192;15.670;2023-11-21T14:00:47;6.05;;;3.17;;
21941;SDS011;11135;54.192;15.670;2023-11-21T14:04:19;4.90;;;2.80;;
21941;SDS011;11135;54.192;15.670;2023-11-21T14:07:58;4.60;;;2.22;;
21941;SDS011;11135;54.192;15.670;2023-11-21T14:11:27;4.50;;;2.55;;
21941;SDS011;11135;54.192;15.670;2023-11-21T14:15:01;4.90;;;2.80;;
21941;SDS011;11135;54.192;15.670;2023-11-21T14:18:38;5.05;;;2.53;;
21941;SDS011;11135;54.192;15.670;2023-11-21T14:22:15;6.75;;;2.25;;
21941;SDS011;11135;54.192;15.670;2023-11-21T14:25:41;5.65;;;3.20;;
21941;SDS011;11135;54.192;15.670;2023-11-21T14:29:10;5.90;;;2.45;;
21941;SDS011;11135;54.192;15.670;2023-11-21T14:32:39;5.47;;;3.13;;
21941;SDS011;11135;54.192;15.670;2023-11-21T14:36:14;13.07;;;5.95;;
21941;SDS011;11135;54.192;15.670;2023-11-21T14:39:42;5.43;;;2.60;;
21941;SDS011;11135;54.192;15.670;2023-11-21T14:43:13;7.30;;;2.65;;
21941;SDS011;11135;54.192;15.670;2023-11-21T14:46:39;8.60;;;3.35;;
21941;SDS011;11135;54.192;15.670;2023-11-21T14:50:10;5.22;;;2.67;;
21941;SDS011;11135;54.192;15.670;2023-11-21T14:53:52;6.50;;;3.60;;
21941;SDS011;11135;54.192;15.670;2023-11-21T14:57:22;20.42;;;8.25;;
21941;SDS011;11135;54.192;15.670;2023-11-21T15:00:53;8.68;;;3.42;;
21941;SDS011;11135;54.192;15.670;2023-11-21T15:04:23;8.02;;;4.20;;
21941;SDS011;11135;54.192;15.670;2023-11-21T15:07:58;5.22;;;2.88;;
21941;SDS011;11135;54.192;15.670;2023-11-21T15:11:39;10.05;;;4.38;;
21941;SDS011;11135;54.192;15.670;2023-11-21T15:15:05;8.27;;;3.35;;
21941;SDS011;11135;54.192;15.670;2023-11-21T15:18:33;5.85;;;2.83;;
21941;SDS011;11135;54.192;15.670;2023-11-21T15:22:00;7.65;;;3.60;;
21941;SDS011;11135;54.192;15.670;2023-11-21T15:25:27;10.30;;;3.85;;
21941;SDS011;11135;54.192;15.670;2023-11-21T15:28:55;9.80;;;3.20;;
21941;SDS011;11135;54.192;15.670;2023-11-21T15:32:22;11.27;;;4.55;;
21941;SDS011;11135;54.192;15.670;2023-11-21T15:35:52;17.48;;;6.45;;
21941;SDS011;11135;54.192;15.670;2023-11-21T15:39:20;13.18;;;5.22;;
21941;SDS011;11135;54.192;15.670;2023-11-21T15:42:52;26.00;;;10.63;;
21941;SDS011;11135;54.192;15.670;2023-11-21T15:46:20;11.93;;;5.18;;
21941;SDS011;11135;54.192;15.670;2023-11-21T15:49:50;10.85;;;5.65;;
21941;SDS011;11135;54.192;15.670;2023-11-21T15:53:16;7.65;;;4.63;;
21941;SDS011;11135;54.192;15.670;2023-11-21T15:56:41;11.88;;;6.28;;
21941;SDS011;11135;54.192;15.670;2023-11-21T16:00:08;11.93;;;5.15;;
21941;SDS011;11135;54.192;15.670;2023-11-21T16:03:42;6.72;;;2.95;;
21941;SDS011;11135;54.192;15.670;2023-11-21T16:07:17;5.90;;;2.80;;
21941;SDS011;11135;54.192;15.670;2023-11-21T16:10:44;8.70;;;4.68;;
21941;SDS011;11135;54.192;15.670;2023-11-21T16:14:15;9.35;;;3.78;;
21941;SDS011;11135;54.192;15.670;2023-11-21T16:17:43;7.50;;;2.58;;
21941;SDS011;11135;54.192;15.670;2023-11-21T16:21:14;7.35;;;3.25;;
21941;SDS011;11135;54.192;15.670;2023-11-21T16:24:43;6.88;;;4.10;;
21941;SDS011;11135;54.192;15.670;2023-11-21T16:28:11;9.73;;;4.03;;
21941;SDS011;11135;54.192;15.670;2023-11-21T16:31:37;9.57;;;3.83;;
21941;SDS011;11135;54.192;15.670;2023-11-21T16:35:03;11.40;;;5.68;;
21941;SDS011;11135;54.192;15.670;2023-11-21T16:38:32;15.27;;;7.22;;
21941;SDS011;11135;54.192;15.670;2023-11-21T16:42:00;14.23;;;7.63;;
21941;SDS011;11135;54.192;15.670;2023-11-21T16:45:28;15.20;;;6.43;;
21941;SDS011;11135;54.192;15.670;2023-11-21T16:48:54;9.05;;;4.85;;
21941;SDS011;11135;54.192;15.670;2023-11-21T16:52:20;6.15;;;3.20;;
21941;SDS011;11135;54.192;15.670;2023-11-21T16:55:49;5.50;;;3.13;;
21941;SDS011;11135;54.192;15.670;2023-11-21T16:59:15;6.88;;;3.15;;
21941;SDS011;11135;54.192;15.670;2023-11-21T17:02:41;7.43;;;3.58;;
21941;SDS011;11135;54.192;15.670;2023-11-21T17:06:07;8.25;;;3.83;;
21941;SDS011;11135;54.192;15.670;2023-11-21T17:09:33;5.65;;;2.67;;
21941;SDS011;11135;54.192;15.670;2023-11-21T17:13:01;6.00;;;3.05;;
21941;SDS011;11135;54.192;15.670;2023-11-21T17:16:27;5.40;;;2.85;;
21941;SDS011;11135;54.192;15.670;2023-11-21T17:19:53;7.90;;;3.50;;
21941;SDS011;11135;54.192;15.670;2023-11-21T17:23:20;10.18;;;4.03;;
21941;SDS011;11135;54.192;15.670;2023-11-21T17:26:46;8.52;;;3.25;;
21941;SDS011;11135;54.192;15.670;2023-11-21T17:30:15;5.38;;;3.05;;
21941;SDS011;11135;54.192;15.670;2023-11-21T17:33:41;8.48;;;3.72;;
21941;SDS011;11135;54.192;15.670;2023-11-21T17:37:08;3.85;;;2.10;;
21941;SDS011;11135;54.192;15.670;2023-11-21T17:40:34;4.72;;;2.55;;
21941;SDS011;11135;54.192;15.670;2023-11-21T17:44:03;5.78;;;2.42;;
21941;SDS011;11135;54.192;15.670;2023-11-21T17:47:32;2.60;;;1.77;;
21941;SDS011;11135;54.192;15.670;2023-11-21T17:50:58;3.42;;;1.85;;
21941;SDS011;11135;54.192;15.670;2023-11-21T17:54:26;1.90;;;1.20;;
21941;SDS011;11135;54.192;15.670;2023-11-21T17:57:52;2.53;;;1.48;;
21941;SDS011;11135;54.192;15.670;2023-11-21T18:01:28;3.00;;;1.20;;
21941;SDS011;11135;54.192;15.670;2023-11-21T18:05:25;2.45;;;1.48;;
21941;SDS011;11135;54.192;15.670;2023-11-21T18:08:52;3.00;;;1.50;;
21941;SDS011;11135;54.192;15.670;2023-11-21T18:12:20;4.28;;;2.03;;
21941;SDS011;11135;54.192;15.670;2023-11-21T18:15:47;4.43;;;1.90;;
21941;SDS011;11135;54.192;15.670;2023-11-21T18:19:12;5.55;;;2.20;;
21941;SDS011;11135;54.192;15.670;2023-11-21T18:22:41;2.75;;;1.38;;
21941;SDS011;11135;54.192;15.670;2023-11-21T18:26:07;3.55;;;1.85;;
21941;SDS011;11135;54.192;15.670;2023-11-21T18:29:32;4.30;;;1.60;;
21941;SDS011;11135;54.192;15.670;2023-11-21T18:33:02;2.35;;;1.48;;
21941;SDS011;11135;54.192;15.670;2023-11-21T18:36:30;2.97;;;1.40;;
21941;SDS011;11135;54.192;15.670;2023-11-21T18:39:59;4.35;;;1.30;;
21941;SDS011;11135;54.192;15.670;2023-11-21T18:43:26;4.60;;;1.67;;
21941;SDS011;11135;54.192;15.670;2023-11-21T18:46:54;8.20;;;2.97;;
21941;SDS011;11135;54.192;15.670;2023-11-21T18:50:20;5.97;;;1.70;;
21941;SDS011;11135;54.192;15.670;2023-11-21T18:53:53;7.70;;;2.65;;
21941;SDS011;11135;54.192;15.670;2023-11-21T18:57:23;2.63;;;1.23;;
21941;SDS011;11135;54.192;15.670;2023-11-21T19:01:06;14.85;;;5.25;;
21941;SDS011;11135;54.192;15.670;2023-11-21T19:04:32;3.67;;;1.48;;
21941;SDS011;11135;54.192;15.670;2023-11-21T19:08:00;9.93;;;3.10;;
21941;SDS011;11135;54.192;15.670;2023-11-21T19:11:27;6.72;;;1.77;;
21941;SDS011;11135;54.192;15.670;2023-11-21T19:14:56;8.13;;;3.60;;
21941;SDS011;11135;54.192;15.670;2023-11-21T19:18:21;7.63;;;3.22;;
21941;SDS011;11135;54.192;15.670;2023-11-21T19:21:47;17.05;;;5.97;;
21941;SDS011;11135;54.192;15.670;2023-11-21T19:25:13;8.05;;;2.83;;
21941;SDS011;11135;54.192;15.670;2023-11-21T19:28:39;9.32;;;4.35;;
21941;SDS011;11135;54.192;15.670;2023-11-21T19:32:07;3.33;;;1.52;;
21941;SDS011;11135;54.192;15.670;2023-11-21T19:35:35;4.15;;;2.22;;
21941;SDS011;11135;54.192;15.670;2023-11-21T19:39:02;8.35;;;2.90;;
21941;SDS011;11135;54.192;15.670;2023-11-21T19:42:28;5.78;;;3.13;;
21941;SDS011;11135;54.192;15.670;2023-11-21T19:45:53;3.03;;;1.60;;
21941;SDS011;11135;54.192;15.670;2023-11-21T19:49:22;22.98;;;7.57;;
21941;SDS011;11135;54.192;15.670;2023-11-21T19:52:51;6.70;;;2.83;;
21941;SDS011;11135;54.192;15.670;2023-11-21T19:56:28;9.90;;;3.72;;
21941;SDS011;11135;54.192;15.670;2023-11-21T19:59:58;6.72;;;2.90;;
21941;SDS011;11135;54.192;15.670;2023-11-21T20:03:24;8.20;;;3.55;;
21941;SDS011;11135;54.192;15.670;2023-11-21T20:06:53;5.25;;;2.60;;
21941;SDS011;11135;54.192;15.670;2023-11-21T20:10:20;4.20;;;2.22;;
21941;SDS011;11135;54.192;15.670;2023-11-21T20:13:47;7.18;;;2.38;;
21941;SDS011;11135;54.192;15.670;2023-11-21T20:17:12;4.88;;;2.40;;
21941;SDS011;11135;54.192;15.670;2023-11-21T20:20:39;8.18;;;4.72;;
21941;SDS011;11135;54.192;15.670;2023-11-21T20:24:08;6.55;;;2.85;;
21941;SDS011;11135;54.192;15.670;2023-11-21T20:27:36;4.45;;;2.70;;
21941;SDS011;11135;54.192;15.670;2023-11-21T20:31:05;6.22;;;2.40;;
21941;SDS011;11135;54.192;15.670;2023-11-21T20:34:31;6.32;;;2.88;;